Airfield :
LOGIN :

Register | Disclaimer

   EN    FR    IT 

 










Legend :    VFR   Marginal VFR   IFR   Intensive IFR   Very Intensive IFR
Visi :
Ceiling :
>= 8 km
>= 3000ft
5 to 8 km
1000 to 3000 ft
1500m to 5 km
500 to 1000 ft
800 to 1500m
200 to 500 ft
< 800m
< 200 ft
Symbols :   Thunderstorms  Fog  Heavy snow  Heavy precipitations  Wind > 20 kt
SIGMETs :     Misc.  Thunderstorms  Icing  Turbulence  Mountain Waves  Volcanic Ashes






- Airport Elevation : 219 ft
- IATA code : DNR


LFRD - Dinard

CURRENT METAR :
  • 281400Z AUTO 23016KT 9999 FEW028 BKN036 BKN078 14/10 Q1009 TEMPO 4000 SHRA BKN025TCU BECMG 22017G30KT

EXPIRED METARs :
  • 281330Z AUTO 22015KT 9999 SCT026 BKN033 BKN078 14/10 Q1009 TEMPO 4000 SHRA BKN025TCU BECMG 22017G30KT
  • 281230Z AUTO 23017G31KT 9999 FEW027/// BKN100/// OVC110/// ///TCU 14/10 Q1009 TEMPO 3000 SHRA SCT020CB BKN025TCU
  • 281200Z AUTO 22014KT 9999 FEW029 OVC100 13/10 Q1009 TEMPO 3000 SHRA SCT020CB BKN025TCU BECMG 22015G25KT
  • 281130Z AUTO 22017KT CAVOK 13/09 Q1009 TEMPO 3000 SHRA SCT020CB BKN025TCU BECMG 22015G25KT

TAF AMD TAF LFRD
Valid from the 28 at 12:00 until the 29 at 12:00 UTC


281241Z 2812/2912 22017G30KT 9999 SCT025
TEMPO 2812/2818 4000 SHRA BKN025TCU
BECMG 2819/2822 23010KT
TEMPO 2818/2824 5000 SHRA
PROB40
TEMPO 2812/2815 3000 SHRA SCT020CB BKN025TCU
BECMG 2908/2910 23015G25KT
TEMPO 2910/2912 BKN012
ATIS : +33 2 99 16 81 50



MET'MAP, your aeronautical weather chart ! - Copyright ORBIFLY December 2007 - Disclaimer

ORBIFLY MET'MAP TEAM :

Programming & Development : Alexandra Zaïnal
Concept & original design : Baudouin d'Aumeries
Assistance for programming : Marc-Olivier Méhu
Technical & hardware support : Manuel Goepfert

Contact : metmap@orbifly.com




SOURCES & CREDITS :

   NOAA